createdAt,value
2022-09-12T00:00:31.753Z,73.91
2022-09-12T00:03:55.847Z,74.13
2022-09-12T00:07:20.437Z,75.12
2022-09-12T00:10:44.228Z,74.89
2022-09-12T00:14:07.981Z,74.88
2022-09-12T00:17:29.640Z,76.11
2022-09-12T00:20:53.555Z,75.81
2022-09-12T00:24:17.343Z,75.57
2022-09-12T00:27:45.506Z,75.51
2022-09-12T00:31:20.376Z,75.07
2022-09-12T00:34:41.995Z,74.63
2022-09-12T00:38:06.279Z,73.67
2022-09-12T00:41:35.171Z,73.77
2022-09-12T00:45:01.940Z,73.66
2022-09-12T00:48:33.868Z,74.27
2022-09-12T00:52:09.894Z,73.84
2022-09-12T00:55:49.061Z,73.64
2022-09-12T00:59:27.617Z,73.67
2022-09-12T01:02:53.070Z,73.45
2022-09-12T01:06:21.165Z,73.52
2022-09-12T01:09:47.067Z,73.66
2022-09-12T01:13:10.374Z,73.46
2022-09-12T01:16:34.428Z,73.58
2022-09-12T01:20:22.079Z,73.20
2022-09-12T01:23:49.286Z,73.28
2022-09-12T01:27:42.076Z,73.36
2022-09-12T01:31:26.922Z,73.41
2022-09-12T01:34:56.416Z,73.45
2022-09-12T01:38:36.955Z,73.75
2022-09-12T01:42:28.289Z,74.56
2022-09-12T01:46:17.675Z,75.74
2022-09-12T01:50:03.087Z,75.74
2022-09-12T01:53:31.383Z,74.92
2022-09-12T01:56:55.328Z,74.82
2022-09-12T02:00:20.639Z,75.15
2022-09-12T02:03:51.886Z,76.18
2022-09-12T02:07:22.742Z,75.98
2022-09-12T02:10:51.649Z,75.71
2022-09-12T02:14:24.205Z,75.26
2022-09-12T02:17:49.852Z,75.03
2022-09-12T02:21:11.863Z,74.84
2022-09-12T02:24:39.629Z,74.40
2022-09-12T02:28:08.947Z,74.90
2022-09-12T02:31:47.403Z,74.96
2022-09-12T02:35:13.798Z,74.96
2022-09-12T02:38:45.426Z,74.59
2022-09-12T02:42:07.723Z,74.85
2022-09-12T02:45:29.855Z,75.87
2022-09-12T02:48:51.587Z,75.93
2022-09-12T02:52:15.189Z,75.84
2022-09-12T02:55:39.167Z,75.60
2022-09-12T02:59:09.514Z,76.49
2022-09-12T03:02:49.846Z,77.54
2022-09-12T03:06:31.123Z,77.87
2022-09-12T03:09:58.979Z,77.20
2022-09-12T03:13:39.303Z,76.95
2022-09-12T03:17:17.357Z,76.62
2022-09-12T03:21:02.161Z,76.29
2022-09-12T03:24:35.365Z,76.61
2022-09-12T03:28:15.690Z,77.39
2022-09-12T03:31:39.359Z,76.91
2022-09-12T03:35:00.903Z,76.44
2022-09-12T03:38:22.436Z,76.86
2022-09-12T03:41:45.184Z,76.30
2022-09-12T03:45:07.810Z,76.05
2022-09-12T03:48:31.909Z,76.18
2022-09-12T03:51:53.586Z,76.33
2022-09-12T03:55:15.317Z,76.01
2022-09-12T03:58:39.914Z,75.70
2022-09-12T04:02:01.838Z,75.43
2022-09-12T04:05:26.812Z,75.38
2022-09-12T04:08:50.699Z,75.58
2022-09-12T04:12:13.884Z,75.51
2022-09-12T04:15:40.610Z,75.82
2022-09-12T04:19:04.678Z,75.62
2022-09-12T04:22:26.487Z,75.83
2022-09-12T04:25:58.182Z,75.81
2022-09-12T04:29:22.430Z,75.70
2022-09-12T04:32:46.268Z,75.66
2022-09-12T04:36:16.847Z,76.28
2022-09-12T04:39:38.413Z,76.07
2022-09-12T04:43:02.657Z,75.70
2022-09-12T04:46:26.979Z,75.59
2022-09-12T04:49:51.159Z,75.71
2022-09-12T04:53:12.660Z,75.50
2022-09-12T04:56:38.504Z,75.30
2022-09-12T05:00:06.531Z,74.60
2022-09-12T05:03:28.685Z,74.18
2022-09-12T05:06:50.270Z,74.03
2022-09-12T05:10:25.218Z,74.29
2022-09-12T05:13:47.540Z,75.00
2022-09-12T05:17:09.147Z,74.67
2022-09-12T05:20:33.609Z,74.41
2022-09-12T05:24:01.920Z,74.67
2022-09-12T05:27:23.459Z,73.92
2022-09-12T05:30:48.763Z,74.35
2022-09-12T05:34:11.204Z,73.98
2022-09-12T05:37:32.748Z,73.25
2022-09-12T05:41:03.507Z,72.94
2022-09-12T05:44:28.262Z,73.81
2022-09-12T05:47:50.029Z,73.30
2022-09-12T05:51:20.291Z,74.39
2022-09-12T05:54:41.872Z,73.85
2022-09-12T05:58:03.617Z,74.19
2022-09-12T06:01:27.116Z,73.91
2022-09-12T06:04:48.870Z,72.72
2022-09-12T06:08:11.242Z,71.58
2022-09-12T06:11:35.302Z,71.48
2022-09-12T06:14:56.977Z,71.78
2022-09-12T06:18:18.675Z,71.19
2022-09-12T06:21:42.597Z,70.75
2022-09-12T06:25:06.864Z,71.27
2022-09-12T06:28:35.590Z,70.84
2022-09-12T06:31:59.595Z,71.05
2022-09-12T06:35:21.296Z,70.52
2022-09-12T06:38:43.250Z,69.82
2022-09-12T06:42:05.115Z,70.35
2022-09-12T06:45:26.761Z,70.03
2022-09-12T06:48:48.485Z,69.49
2022-09-12T06:52:12.368Z,67.74
2022-09-12T06:55:34.829Z,68.73
2022-09-12T06:59:00.425Z,66.58
2022-09-12T07:02:25.723Z,65.71
2022-09-12T07:05:52.466Z,65.94
2022-09-12T07:09:20.449Z,65.46
2022-09-12T07:12:44.249Z,64.39
2022-09-12T07:16:10.085Z,63.55
2022-09-12T07:19:31.612Z,63.78
2022-09-12T07:22:55.460Z,62.77
2022-09-12T07:26:17.103Z,62.24
2022-09-12T07:29:38.795Z,61.95
2022-09-12T07:33:00.499Z,60.40
2022-09-12T07:36:25.306Z,61.14
2022-09-12T07:39:47.013Z,61.77
2022-09-12T07:43:09.226Z,62.08
2022-09-12T07:46:31.743Z,61.10
2022-09-12T07:49:55.687Z,61.24
2022-09-12T07:53:17.230Z,61.18
2022-09-12T07:56:39.571Z,61.15
2022-09-12T08:00:06.701Z,60.83
2022-09-12T08:03:28.234Z,58.57
2022-09-12T08:06:52.019Z,57.32
2022-09-12T08:10:13.818Z,55.33
2022-09-12T08:13:37.396Z,56.05
2022-09-12T08:16:58.910Z,53.17
2022-09-12T08:20:21.923Z,53.85
2022-09-12T08:23:46.431Z,54.19
2022-09-12T08:27:10.745Z,54.92
2022-09-12T08:30:32.420Z,54.96
2022-09-12T08:34:01.082Z,54.91
2022-09-12T08:37:25.114Z,53.19
2022-09-12T08:41:20.715Z,54.33
2022-09-12T08:44:51.343Z,53.81
2022-09-12T08:48:18.950Z,53.45
2022-09-12T08:51:43.693Z,52.88
2022-09-12T08:55:06.917Z,52.92
2022-09-12T08:58:40.743Z,50.35
2022-09-12T09:02:13.814Z,51.34
2022-09-12T09:06:02.626Z,50.46
2022-09-12T09:09:43.009Z,51.25
2022-09-12T09:13:42.995Z,51.42
2022-09-12T09:17:11.448Z,52.73
2022-09-12T09:20:44.010Z,50.97
2022-09-12T09:24:10.311Z,50.08
2022-09-12T09:27:41.897Z,49.94
2022-09-12T09:31:04.848Z,51.80
2022-09-12T09:34:33.159Z,52.43
2022-09-12T09:38:05.263Z,51.47
2022-09-12T09:41:52.388Z,50.27
2022-09-12T09:45:21.614Z,52.21
2022-09-12T09:48:48.645Z,51.12
2022-09-12T09:52:16.232Z,52.61
2022-09-12T09:55:43.885Z,51.76
2022-09-12T09:59:34.583Z,48.86
2022-09-12T10:03:04.759Z,46.00
2022-09-12T10:06:32.301Z,45.77
2022-09-12T10:10:22.822Z,41.86
2022-09-12T10:13:51.191Z,43.30
2022-09-12T10:17:49.461Z,43.67
2022-09-12T10:21:17.283Z,45.90
2022-09-12T10:24:49.046Z,47.33
2022-09-12T10:28:35.272Z,48.13
2022-09-12T10:32:05.716Z,48.39
2022-09-12T10:35:42.496Z,48.48
2022-09-12T10:39:05.171Z,49.37
2022-09-12T10:42:47.363Z,49.97
2022-09-12T10:46:14.837Z,49.28
2022-09-12T10:49:40.091Z,50.15
2022-09-12T10:53:20.799Z,50.39
2022-09-12T10:57:11.958Z,51.33
2022-09-12T11:00:40.053Z,51.17
2022-09-12T11:04:39.584Z,51.00
2022-09-12T11:08:39.973Z,50.15
2022-09-12T11:12:10.658Z,51.37
2022-09-12T11:16:05.173Z,51.83
2022-09-12T11:19:52.623Z,50.87
2022-09-12T11:23:19.709Z,50.21
2022-09-12T11:27:01.444Z,48.94
2022-09-12T11:30:24.200Z,47.90
2022-09-12T11:33:53.940Z,46.94
2022-09-12T11:37:43.945Z,44.81
2022-09-12T11:41:31.525Z,44.51
2022-09-12T11:45:10.147Z,45.01
2022-09-12T11:48:48.973Z,46.53
2022-09-12T11:52:23.970Z,47.18
2022-09-12T11:56:15.651Z,46.72
2022-09-12T12:00:15.043Z,48.27
2022-09-12T12:03:39.534Z,49.78
2022-09-12T12:07:07.861Z,51.06
2022-09-12T12:10:37.291Z,52.19
2022-09-12T12:14:17.729Z,52.16
2022-09-12T12:17:41.771Z,51.63
2022-09-12T12:21:40.953Z,51.66
2022-09-12T12:25:28.998Z,51.83
2022-09-12T12:28:52.189Z,51.90
2022-09-12T12:32:17.571Z,49.49
2022-09-12T12:36:02.420Z,46.57
2022-09-12T12:39:54.040Z,46.61
2022-09-12T12:43:32.058Z,46.40
2022-09-12T12:47:17.676Z,47.32
2022-09-12T12:50:39.376Z,47.01
2022-09-12T12:54:11.002Z,47.54
2022-09-12T12:57:49.569Z,48.63
2022-09-12T13:01:22.991Z,47.91
2022-09-12T13:04:49.079Z,48.19
2022-09-12T13:08:31.747Z,48.52
2022-09-12T13:12:09.771Z,48.41
2022-09-12T13:15:39.754Z,47.65
2022-09-12T13:19:18.010Z,48.06
2022-09-12T13:22:44.685Z,46.53
2022-09-12T13:26:24.154Z,46.41
2022-09-12T13:29:48.821Z,45.75
2022-09-12T13:33:17.971Z,45.59
2022-09-12T13:37:05.810Z,45.84
2022-09-12T13:40:49.684Z,45.50
2022-09-12T13:44:17.641Z,45.32
2022-09-12T13:47:46.708Z,45.03
2022-09-12T13:51:33.576Z,44.18
2022-09-12T13:54:58.457Z,44.17
2022-09-12T13:58:28.668Z,44.28
2022-09-12T14:01:50.658Z,43.21
2022-09-12T14:05:24.406Z,43.61
2022-09-12T14:08:48.167Z,42.08
2022-09-12T14:12:22.278Z,43.06
2022-09-12T14:15:55.243Z,42.08
2022-09-12T14:19:19.344Z,42.49
2022-09-12T14:22:43.378Z,42.57
2022-09-12T14:26:06.703Z,41.33
2022-09-12T14:29:31.532Z,40.59
2022-09-12T14:33:13.814Z,40.13
2022-09-12T14:36:47.408Z,39.55
2022-09-12T14:40:41.095Z,39.86
2022-09-12T14:44:07.780Z,40.05
2022-09-12T14:47:41.857Z,40.37
2022-09-12T14:51:08.733Z,40.33
2022-09-12T14:54:30.398Z,40.24
2022-09-12T14:58:15.728Z,39.17
2022-09-12T15:01:39.854Z,38.79
2022-09-12T15:05:06.431Z,38.67
2022-09-12T15:08:28.100Z,39.44
2022-09-12T15:11:53.748Z,38.29
2022-09-12T15:15:20.856Z,38.02
2022-09-12T15:18:47.354Z,39.24
2022-09-12T15:22:15.477Z,39.33
2022-09-12T15:25:37.173Z,39.84
2022-09-12T15:28:58.721Z,40.41
2022-09-12T15:32:26.923Z,40.50
2022-09-12T15:35:48.926Z,40.89
2022-09-12T15:39:10.638Z,41.07
2022-09-12T15:42:33.244Z,41.44
2022-09-12T15:45:54.966Z,41.73
2022-09-12T15:49:19.511Z,41.45
2022-09-12T15:52:41.429Z,41.59
2022-09-12T15:56:06.465Z,42.12
2022-09-12T15:59:28.372Z,42.27
2022-09-12T16:02:54.103Z,42.06
2022-09-12T16:06:15.647Z,42.60
2022-09-12T16:09:37.551Z,41.66
2022-09-12T16:13:01.754Z,42.45
2022-09-12T16:16:23.485Z,42.80
2022-09-12T16:19:47.272Z,42.66
2022-09-12T16:23:12.700Z,42.29
2022-09-12T16:26:34.381Z,43.23
2022-09-12T16:29:56.039Z,43.23
2022-09-12T16:33:19.793Z,43.78
2022-09-12T16:36:45.245Z,43.84
2022-09-12T16:40:15.842Z,45.12
2022-09-12T16:43:45.544Z,44.95
2022-09-12T16:47:07.274Z,45.19
2022-09-12T16:50:29.306Z,45.99
2022-09-12T16:53:56.801Z,45.82
2022-09-12T16:57:18.362Z,46.22
2022-09-12T17:00:40.030Z,47.00
2022-09-12T17:04:02.001Z,47.00
2022-09-12T17:07:23.867Z,47.10
2022-09-12T17:10:45.363Z,46.67
2022-09-12T17:14:09.006Z,46.94
2022-09-12T17:17:30.709Z,47.45
2022-09-12T17:20:52.375Z,47.73
2022-09-12T17:24:17.175Z,47.47
2022-09-12T17:27:38.917Z,47.70
2022-09-12T17:31:05.787Z,46.93
2022-09-12T17:34:27.342Z,47.68
2022-09-12T17:37:49.931Z,47.81
2022-09-12T17:41:21.598Z,48.33
2022-09-12T17:44:43.515Z,48.47
2022-09-12T17:48:06.770Z,48.72
2022-09-12T17:51:31.217Z,48.47
2022-09-12T17:54:52.758Z,48.54
2022-09-12T17:58:14.508Z,48.73
2022-09-12T18:01:57.170Z,48.44
2022-09-12T18:05:23.898Z,48.63
2022-09-12T18:08:45.392Z,48.86
2022-09-12T18:12:10.807Z,49.38
2022-09-12T18:15:38.460Z,49.77
2022-09-12T18:19:03.614Z,50.05
2022-09-12T18:22:25.128Z,50.57
2022-09-12T18:25:46.768Z,51.02
2022-09-12T18:29:10.750Z,51.19
2022-09-12T18:32:32.283Z,51.68
2022-09-12T18:35:53.945Z,52.07
2022-09-12T18:39:16.585Z,52.57
2022-09-12T18:42:38.329Z,53.09
2022-09-12T18:46:08.222Z,53.90
2022-09-12T18:49:32.822Z,54.14
2022-09-12T18:52:59.766Z,55.02
2022-09-12T18:56:32.826Z,56.52
2022-09-12T18:59:54.916Z,56.63
2022-09-12T19:03:18.895Z,56.88
2022-09-12T19:06:42.866Z,58.97
2022-09-12T19:10:05.043Z,59.58
2022-09-12T19:13:26.610Z,59.31
2022-09-12T19:16:48.753Z,59.49
2022-09-12T19:20:12.363Z,59.26
2022-09-12T19:23:35.330Z,58.56
2022-09-12T19:26:56.991Z,58.31
2022-09-12T19:30:23.349Z,58.58
2022-09-12T19:33:47.328Z,59.27
2022-09-12T19:37:11.577Z,59.58
2022-09-12T19:40:33.548Z,59.53
2022-09-12T19:43:59.583Z,59.26
2022-09-12T19:47:21.424Z,59.85
2022-09-12T19:50:42.942Z,60.07
2022-09-12T19:54:07.842Z,60.20
2022-09-12T19:57:31.943Z,60.13
2022-09-12T20:00:54.287Z,60.85
2022-09-12T20:04:18.256Z,60.94
2022-09-12T20:07:48.352Z,61.16
2022-09-12T20:11:15.181Z,60.87
2022-09-12T20:14:36.905Z,60.54
2022-09-12T20:17:58.459Z,60.58
2022-09-12T20:21:25.251Z,60.67
2022-09-12T20:24:49.437Z,59.80
2022-09-12T20:28:11.014Z,59.43
2022-09-12T20:31:33.715Z,59.21
2022-09-12T20:34:57.548Z,58.86
2022-09-12T20:38:21.706Z,58.91
2022-09-12T20:41:48.131Z,59.60
2022-09-12T20:45:12.426Z,60.06
2022-09-12T20:48:36.815Z,58.78
2022-09-12T20:51:58.418Z,59.73
2022-09-12T20:55:24.814Z,60.46
2022-09-12T20:58:48.998Z,60.41
2022-09-12T21:02:14.169Z,60.48
2022-09-12T21:05:35.885Z,60.26
2022-09-12T21:09:01.114Z,60.20
2022-09-12T21:12:24.840Z,60.44
2022-09-12T21:15:49.811Z,60.37
2022-09-12T21:19:11.368Z,62.91
2022-09-12T21:22:35.938Z,62.89
2022-09-12T21:26:01.488Z,62.47
2022-09-12T21:29:23.136Z,62.40
2022-09-12T21:32:51.808Z,62.48
2022-09-12T21:36:13.330Z,62.92
2022-09-12T21:39:37.571Z,62.88
2022-09-12T21:42:59.382Z,63.59
2022-09-12T21:46:21.006Z,64.28
2022-09-12T21:49:45.534Z,64.30
2022-09-12T21:53:11.826Z,64.26
2022-09-12T21:56:33.540Z,65.39
2022-09-12T21:59:57.826Z,65.07
2022-09-12T22:03:19.356Z,64.71
2022-09-12T22:06:40.893Z,64.73
2022-09-12T22:10:03.448Z,64.38
2022-09-12T22:13:25.950Z,64.57
2022-09-12T22:16:49.738Z,64.73
2022-09-12T22:20:14.702Z,65.72
2022-09-12T22:23:54.585Z,65.71
2022-09-12T22:27:16.235Z,65.58
2022-09-12T22:30:42.987Z,65.86
2022-09-12T22:34:07.343Z,66.05
2022-09-12T22:37:28.908Z,66.66
2022-09-12T22:40:50.713Z,66.41
2022-09-12T22:44:16.484Z,65.12
2022-09-12T22:47:42.972Z,64.73
2022-09-12T22:51:05.317Z,65.94
2022-09-12T22:54:28.036Z,65.28
2022-09-12T22:57:49.794Z,64.85
2022-09-12T23:01:11.675Z,64.53
2022-09-12T23:04:33.327Z,65.06
2022-09-12T23:07:55.629Z,65.32
2022-09-12T23:11:19.583Z,66.40
2022-09-12T23:14:41.355Z,66.19
2022-09-12T23:18:05.451Z,66.84
2022-09-12T23:21:26.976Z,67.21
2022-09-12T23:24:48.618Z,66.34
2022-09-12T23:28:10.332Z,66.56
2022-09-12T23:31:34.282Z,66.69
2022-09-12T23:34:55.814Z,67.24
2022-09-12T23:38:22.178Z,67.33
2022-09-12T23:41:46.160Z,67.04
2022-09-12T23:45:08.315Z,67.28
2022-09-12T23:48:29.986Z,67.97
2022-09-12T23:51:51.510Z,67.63
2022-09-12T23:55:15.515Z,67.85
2022-09-12T23:58:40.002Z,68.13
